sensor_id;sensor_type;location;lat;lon;timestamp;P1;durP1;ratioP1;P2;durP2;ratioP2
52888;SDS011;41413;52.770;6.892;2023-08-21T00:01:31;1999.90;;;999.90;;
52888;SDS011;41413;52.770;6.892;2023-08-21T00:03:58;1999.90;;;999.90;;
52888;SDS011;41413;52.770;6.892;2023-08-21T00:06:25;1999.90;;;999.90;;
52888;SDS011;41413;52.770;6.892;2023-08-21T00:08:51;1999.90;;;999.90;;
52888;SDS011;41413;52.770;6.892;2023-08-21T00:11:18;1999.90;;;999.90;;
52888;SDS011;41413;52.770;6.892;2023-08-21T00:13:45;1999.90;;;999.90;;
52888;SDS011;41413;52.770;6.892;2023-08-21T00:16:14;1999.90;;;999.90;;
52888;SDS011;41413;52.770;6.892;2023-08-21T00:18:41;1999.90;;;999.90;;
52888;SDS011;41413;52.770;6.892;2023-08-21T00:21:07;1999.90;;;999.90;;
52888;SDS011;41413;52.770;6.892;2023-08-21T00:23:34;1999.90;;;999.90;;
52888;SDS011;41413;52.770;6.892;2023-08-21T00:26:01;1999.90;;;999.90;;
52888;SDS011;41413;52.770;6.892;2023-08-21T00:28:28;1999.90;;;999.90;;
52888;SDS011;41413;52.770;6.892;2023-08-21T00:31:02;1999.90;;;999.90;;
52888;SDS011;41413;52.770;6.892;2023-08-21T00:33:30;1999.90;;;999.90;;
52888;SDS011;41413;52.770;6.892;2023-08-21T00:35:57;1999.90;;;999.90;;
52888;SDS011;41413;52.770;6.892;2023-08-21T00:38:24;1999.90;;;999.90;;
52888;SDS011;41413;52.770;6.892;2023-08-21T00:40:51;1999.90;;;999.90;;
52888;SDS011;41413;52.770;6.892;2023-08-21T00:43:18;1999.90;;;999.90;;
52888;SDS011;41413;52.770;6.892;2023-08-21T00:45:46;1999.90;;;999.90;;
52888;SDS011;41413;52.770;6.892;2023-08-21T00:48:13;1999.90;;;999.90;;
52888;SDS011;41413;52.770;6.892;2023-08-21T00:50:40;1999.90;;;999.90;;
52888;SDS011;41413;52.770;6.892;2023-08-21T00:53:08;1999.90;;;999.90;;
52888;SDS011;41413;52.770;6.892;2023-08-21T00:55:35;1999.90;;;999.90;;
52888;SDS011;41413;52.770;6.892;2023-08-21T00:58:02;1999.90;;;999.90;;
52888;SDS011;41413;52.770;6.892;2023-08-21T01:00:30;1999.90;;;999.90;;
52888;SDS011;41413;52.770;6.892;2023-08-21T01:02:57;1999.90;;;999.90;;
52888;SDS011;41413;52.770;6.892;2023-08-21T01:05:24;1999.90;;;999.90;;
52888;SDS011;41413;52.770;6.892;2023-08-21T01:08:09;1999.90;;;999.90;;
52888;SDS011;41413;52.770;6.892;2023-08-21T01:16:04;1999.90;;;999.90;;
52888;SDS011;41413;52.770;6.892;2023-08-21T01:18:33;1999.90;;;999.90;;
52888;SDS011;41413;52.770;6.892;2023-08-21T01:21:03;1999.90;;;999.90;;
52888;SDS011;41413;52.770;6.892;2023-08-21T01:23:34;1999.90;;;999.90;;
52888;SDS011;41413;52.770;6.892;2023-08-21T01:26:02;1999.90;;;999.90;;
52888;SDS011;41413;52.770;6.892;2023-08-21T01:28:30;1999.90;;;999.90;;
52888;SDS011;41413;52.770;6.892;2023-08-21T01:34:04;1999.90;;;999.90;;
52888;SDS011;41413;52.770;6.892;2023-08-21T01:36:35;1999.90;;;999.90;;
52888;SDS011;41413;52.770;6.892;2023-08-21T01:39:02;1999.90;;;999.90;;
52888;SDS011;41413;52.770;6.892;2023-08-21T01:41:29;1999.90;;;999.90;;
52888;SDS011;41413;52.770;6.892;2023-08-21T01:43:56;1999.90;;;999.90;;
52888;SDS011;41413;52.770;6.892;2023-08-21T01:46:23;1999.90;;;999.90;;
52888;SDS011;41413;52.770;6.892;2023-08-21T01:48:49;1999.90;;;999.90;;
52888;SDS011;41413;52.770;6.892;2023-08-21T01:51:16;1999.90;;;999.90;;
52888;SDS011;41413;52.770;6.892;2023-08-21T01:53:43;1999.90;;;999.90;;
52888;SDS011;41413;52.770;6.892;2023-08-21T01:56:10;1999.90;;;999.90;;
52888;SDS011;41413;52.770;6.892;2023-08-21T01:58:37;1999.90;;;999.90;;
52888;SDS011;41413;52.770;6.892;2023-08-21T02:01:03;1999.90;;;999.90;;
52888;SDS011;41413;52.770;6.892;2023-08-21T02:03:31;1999.90;;;999.90;;
52888;SDS011;41413;52.770;6.892;2023-08-21T02:05:58;1999.90;;;999.90;;
52888;SDS011;41413;52.770;6.892;2023-08-21T02:08:31;1999.90;;;999.90;;
52888;SDS011;41413;52.770;6.892;2023-08-21T02:10:59;1999.90;;;999.90;;
52888;SDS011;41413;52.770;6.892;2023-08-21T02:13:27;1999.90;;;999.90;;
52888;SDS011;41413;52.770;6.892;2023-08-21T02:15:54;1999.90;;;999.90;;
52888;SDS011;41413;52.770;6.892;2023-08-21T02:18:21;1999.90;;;999.90;;
52888;SDS011;41413;52.770;6.892;2023-08-21T02:20:47;1999.90;;;999.90;;
52888;SDS011;41413;52.770;6.892;2023-08-21T02:23:15;1999.90;;;999.90;;
52888;SDS011;41413;52.770;6.892;2023-08-21T02:25:42;1999.90;;;999.90;;
52888;SDS011;41413;52.770;6.892;2023-08-21T02:28:09;1999.90;;;999.90;;
52888;SDS011;41413;52.770;6.892;2023-08-21T02:30:39;1999.90;;;999.90;;
52888;SDS011;41413;52.770;6.892;2023-08-21T02:33:09;1999.90;;;999.90;;
52888;SDS011;41413;52.770;6.892;2023-08-21T02:35:36;1999.90;;;999.90;;
52888;SDS011;41413;52.770;6.892;2023-08-21T02:38:02;1999.90;;;999.90;;
52888;SDS011;41413;52.770;6.892;2023-08-21T02:40:29;1999.90;;;999.90;;
52888;SDS011;41413;52.770;6.892;2023-08-21T02:42:56;1999.90;;;999.90;;
52888;SDS011;41413;52.770;6.892;2023-08-21T02:45:24;1999.90;;;999.90;;
52888;SDS011;41413;52.770;6.892;2023-08-21T02:47:50;1999.90;;;999.90;;
52888;SDS011;41413;52.770;6.892;2023-08-21T02:50:17;1999.90;;;999.90;;
52888;SDS011;41413;52.770;6.892;2023-08-21T02:52:44;1999.90;;;999.90;;
52888;SDS011;41413;52.770;6.892;2023-08-21T02:55:11;1999.90;;;999.90;;
52888;SDS011;41413;52.770;6.892;2023-08-21T02:57:37;1999.90;;;999.90;;
52888;SDS011;41413;52.770;6.892;2023-08-21T03:00:04;1999.90;;;999.90;;
52888;SDS011;41413;52.770;6.892;2023-08-21T03:02:32;1999.90;;;999.90;;
52888;SDS011;41413;52.770;6.892;2023-08-21T03:05:00;1999.90;;;999.90;;
52888;SDS011;41413;52.770;6.892;2023-08-21T03:07:27;1999.90;;;999.90;;
52888;SDS011;41413;52.770;6.892;2023-08-21T03:09:53;1999.90;;;999.90;;
52888;SDS011;41413;52.770;6.892;2023-08-21T03:12:20;1999.90;;;999.90;;
52888;SDS011;41413;52.770;6.892;2023-08-21T03:14:47;1999.90;;;999.90;;
52888;SDS011;41413;52.770;6.892;2023-08-21T03:17:13;1999.90;;;999.90;;
52888;SDS011;41413;52.770;6.892;2023-08-21T03:19:40;1999.90;;;999.90;;
52888;SDS011;41413;52.770;6.892;2023-08-21T03:22:07;1999.90;;;999.90;;
52888;SDS011;41413;52.770;6.892;2023-08-21T03:24:34;1999.90;;;999.90;;
52888;SDS011;41413;52.770;6.892;2023-08-21T03:27:01;1999.90;;;999.90;;
52888;SDS011;41413;52.770;6.892;2023-08-21T03:29:28;1999.90;;;999.90;;
52888;SDS011;41413;52.770;6.892;2023-08-21T03:31:54;1999.90;;;999.90;;
52888;SDS011;41413;52.770;6.892;2023-08-21T03:34:22;1999.90;;;999.90;;
52888;SDS011;41413;52.770;6.892;2023-08-21T03:36:49;1999.90;;;999.90;;
52888;SDS011;41413;52.770;6.892;2023-08-21T03:39:15;1999.90;;;999.90;;
52888;SDS011;41413;52.770;6.892;2023-08-21T03:41:42;1999.90;;;999.90;;
52888;SDS011;41413;52.770;6.892;2023-08-21T03:44:09;1999.90;;;999.90;;
52888;SDS011;41413;52.770;6.892;2023-08-21T03:46:36;1999.90;;;999.90;;
52888;SDS011;41413;52.770;6.892;2023-08-21T03:49:03;1999.90;;;999.90;;
52888;SDS011;41413;52.770;6.892;2023-08-21T03:51:30;1999.90;;;999.90;;
52888;SDS011;41413;52.770;6.892;2023-08-21T03:53:57;1999.90;;;999.90;;
52888;SDS011;41413;52.770;6.892;2023-08-21T03:56:23;1999.90;;;999.90;;
52888;SDS011;41413;52.770;6.892;2023-08-21T03:58:51;1999.90;;;999.90;;
52888;SDS011;41413;52.770;6.892;2023-08-21T04:01:17;1999.90;;;999.90;;
52888;SDS011;41413;52.770;6.892;2023-08-21T04:03:44;1999.90;;;999.90;;
52888;SDS011;41413;52.770;6.892;2023-08-21T04:06:11;1999.90;;;999.90;;
52888;SDS011;41413;52.770;6.892;2023-08-21T04:08:38;1999.90;;;999.90;;
52888;SDS011;41413;52.770;6.892;2023-08-21T04:11:05;1999.90;;;999.90;;
52888;SDS011;41413;52.770;6.892;2023-08-21T04:13:32;1999.90;;;999.90;;
52888;SDS011;41413;52.770;6.892;2023-08-21T04:15:59;1999.90;;;999.90;;
52888;SDS011;41413;52.770;6.892;2023-08-21T04:18:26;1999.90;;;999.90;;
52888;SDS011;41413;52.770;6.892;2023-08-21T04:21:06;1999.90;;;999.90;;
52888;SDS011;41413;52.770;6.892;2023-08-21T04:23:33;1999.90;;;999.90;;
52888;SDS011;41413;52.770;6.892;2023-08-21T04:26:00;1999.90;;;999.90;;
52888;SDS011;41413;52.770;6.892;2023-08-21T04:28:31;1999.90;;;999.90;;
52888;SDS011;41413;52.770;6.892;2023-08-21T04:30:59;1999.90;;;999.90;;
52888;SDS011;41413;52.770;6.892;2023-08-21T04:33:27;1999.90;;;999.90;;
52888;SDS011;41413;52.770;6.892;2023-08-21T04:35:54;1999.90;;;999.90;;
52888;SDS011;41413;52.770;6.892;2023-08-21T04:38:21;1999.90;;;999.90;;
52888;SDS011;41413;52.770;6.892;2023-08-21T04:40:48;1999.90;;;999.90;;
52888;SDS011;41413;52.770;6.892;2023-08-21T04:43:15;1999.90;;;999.90;;
52888;SDS011;41413;52.770;6.892;2023-08-21T04:45:48;1999.90;;;999.90;;
52888;SDS011;41413;52.770;6.892;2023-08-21T04:48:21;1999.90;;;999.90;;
52888;SDS011;41413;52.770;6.892;2023-08-21T04:50:48;1999.90;;;999.90;;
52888;SDS011;41413;52.770;6.892;2023-08-21T04:53:14;1999.90;;;999.90;;
52888;SDS011;41413;52.770;6.892;2023-08-21T04:55:41;1999.90;;;999.90;;
52888;SDS011;41413;52.770;6.892;2023-08-21T04:58:09;1999.90;;;999.90;;
52888;SDS011;41413;52.770;6.892;2023-08-21T05:00:36;1999.90;;;999.90;;
52888;SDS011;41413;52.770;6.892;2023-08-21T05:03:03;1999.90;;;999.90;;
52888;SDS011;41413;52.770;6.892;2023-08-21T05:05:30;1999.90;;;999.90;;
52888;SDS011;41413;52.770;6.892;2023-08-21T05:07:57;1999.90;;;999.90;;
52888;SDS011;41413;52.770;6.892;2023-08-21T05:10:23;1999.90;;;999.90;;
52888;SDS011;41413;52.770;6.892;2023-08-21T05:12:50;1999.90;;;999.90;;
52888;SDS011;41413;52.770;6.892;2023-08-21T05:15:17;1999.90;;;999.90;;
52888;SDS011;41413;52.770;6.892;2023-08-21T05:17:43;1999.90;;;999.90;;
52888;SDS011;41413;52.770;6.892;2023-08-21T05:20:10;1999.90;;;999.90;;
52888;SDS011;41413;52.770;6.892;2023-08-21T05:22:40;1999.90;;;999.90;;
52888;SDS011;41413;52.770;6.892;2023-08-21T05:25:07;1999.90;;;999.90;;
52888;SDS011;41413;52.770;6.892;2023-08-21T05:27:34;1999.90;;;999.90;;
52888;SDS011;41413;52.770;6.892;2023-08-21T05:30:01;1999.90;;;999.90;;
52888;SDS011;41413;52.770;6.892;2023-08-21T05:32:29;1999.90;;;999.90;;
52888;SDS011;41413;52.770;6.892;2023-08-21T05:34:56;1999.90;;;999.90;;
52888;SDS011;41413;52.770;6.892;2023-08-21T05:37:23;1999.90;;;999.90;;
52888;SDS011;41413;52.770;6.892;2023-08-21T05:39:49;1999.90;;;999.90;;
52888;SDS011;41413;52.770;6.892;2023-08-21T05:42:16;1999.90;;;999.90;;
52888;SDS011;41413;52.770;6.892;2023-08-21T05:44:43;1999.90;;;999.90;;
52888;SDS011;41413;52.770;6.892;2023-08-21T05:47:10;1999.90;;;999.90;;
52888;SDS011;41413;52.770;6.892;2023-08-21T05:49:37;1999.90;;;999.90;;
52888;SDS011;41413;52.770;6.892;2023-08-21T05:52:04;1999.90;;;999.90;;
52888;SDS011;41413;52.770;6.892;2023-08-21T05:54:31;1999.90;;;999.90;;
52888;SDS011;41413;52.770;6.892;2023-08-21T05:56:58;1999.90;;;999.90;;
52888;SDS011;41413;52.770;6.892;2023-08-21T05:59:29;1999.90;;;999.90;;
52888;SDS011;41413;52.770;6.892;2023-08-21T06:01:57;1999.90;;;999.90;;
52888;SDS011;41413;52.770;6.892;2023-08-21T06:04:24;1999.90;;;999.90;;
52888;SDS011;41413;52.770;6.892;2023-08-21T06:06:53;1999.90;;;999.90;;
52888;SDS011;41413;52.770;6.892;2023-08-21T06:09:20;1999.90;;;999.90;;
52888;SDS011;41413;52.770;6.892;2023-08-21T06:11:47;1999.90;;;999.90;;
52888;SDS011;41413;52.770;6.892;2023-08-21T06:14:13;1999.90;;;999.90;;
52888;SDS011;41413;52.770;6.892;2023-08-21T06:16:40;1999.90;;;999.90;;
52888;SDS011;41413;52.770;6.892;2023-08-21T06:19:07;1999.90;;;999.90;;
52888;SDS011;41413;52.770;6.892;2023-08-21T06:21:34;1999.90;;;999.90;;
52888;SDS011;41413;52.770;6.892;2023-08-21T06:24:01;1999.90;;;999.90;;
52888;SDS011;41413;52.770;6.892;2023-08-21T06:26:28;1999.90;;;999.90;;
52888;SDS011;41413;52.770;6.892;2023-08-21T06:28:55;1999.90;;;999.90;;
52888;SDS011;41413;52.770;6.892;2023-08-21T06:31:21;1999.90;;;999.90;;
52888;SDS011;41413;52.770;6.892;2023-08-21T06:33:48;1999.90;;;999.90;;
52888;SDS011;41413;52.770;6.892;2023-08-21T06:36:15;1999.90;;;999.90;;
52888;SDS011;41413;52.770;6.892;2023-08-21T06:38:41;1999.90;;;999.90;;
52888;SDS011;41413;52.770;6.892;2023-08-21T06:41:10;1999.90;;;999.90;;
52888;SDS011;41413;52.770;6.892;2023-08-21T06:43:38;1999.90;;;999.90;;
52888;SDS011;41413;52.770;6.892;2023-08-21T06:46:10;1999.90;;;999.90;;
52888;SDS011;41413;52.770;6.892;2023-08-21T06:48:37;1999.90;;;999.90;;
52888;SDS011;41413;52.770;6.892;2023-08-21T06:51:05;1999.90;;;999.90;;
52888;SDS011;41413;52.770;6.892;2023-08-21T06:53:32;1999.90;;;999.90;;
52888;SDS011;41413;52.770;6.892;2023-08-21T06:55:59;1999.90;;;999.90;;
52888;SDS011;41413;52.770;6.892;2023-08-21T06:58:26;1999.90;;;999.90;;
52888;SDS011;41413;52.770;6.892;2023-08-21T07:00:55;1999.90;;;999.90;;
52888;SDS011;41413;52.770;6.892;2023-08-21T07:03:22;1999.90;;;999.90;;
52888;SDS011;41413;52.770;6.892;2023-08-21T07:05:56;1999.90;;;999.90;;
52888;SDS011;41413;52.770;6.892;2023-08-21T07:08:23;1999.90;;;999.90;;
52888;SDS011;41413;52.770;6.892;2023-08-21T07:10:51;1999.90;;;999.90;;
52888;SDS011;41413;52.770;6.892;2023-08-21T07:13:18;1999.90;;;999.90;;
52888;SDS011;41413;52.770;6.892;2023-08-21T07:15:46;1999.90;;;999.90;;
52888;SDS011;41413;52.770;6.892;2023-08-21T07:18:13;1999.90;;;999.90;;
52888;SDS011;41413;52.770;6.892;2023-08-21T07:20:40;1999.90;;;999.90;;
52888;SDS011;41413;52.770;6.892;2023-08-21T07:23:07;1999.90;;;999.90;;
52888;SDS011;41413;52.770;6.892;2023-08-21T07:25:34;1999.90;;;999.90;;
52888;SDS011;41413;52.770;6.892;2023-08-21T07:28:01;1999.90;;;999.90;;
52888;SDS011;41413;52.770;6.892;2023-08-21T07:30:28;1999.90;;;999.90;;
52888;SDS011;41413;52.770;6.892;2023-08-21T07:32:55;1999.90;;;999.90;;
52888;SDS011;41413;52.770;6.892;2023-08-21T07:35:22;1999.90;;;999.90;;
52888;SDS011;41413;52.770;6.892;2023-08-21T07:37:49;1999.90;;;999.90;;
52888;SDS011;41413;52.770;6.892;2023-08-21T07:40:15;1999.90;;;999.90;;
52888;SDS011;41413;52.770;6.892;2023-08-21T07:42:42;1999.90;;;999.90;;
52888;SDS011;41413;52.770;6.892;2023-08-21T07:45:09;1999.90;;;999.90;;
52888;SDS011;41413;52.770;6.892;2023-08-21T07:47:37;1999.90;;;999.90;;
52888;SDS011;41413;52.770;6.892;2023-08-21T07:50:07;1896.47;;;648.78;;
52888;SDS011;41413;52.770;6.892;2023-08-21T07:52:34;1999.90;;;999.90;;
52888;SDS011;41413;52.770;6.892;2023-08-21T07:55:03;1999.90;;;999.90;;
52888;SDS011;41413;52.770;6.892;2023-08-21T07:57:30;1999.90;;;999.90;;
52888;SDS011;41413;52.770;6.892;2023-08-21T07:59:57;1999.90;;;999.90;;
52888;SDS011;41413;52.770;6.892;2023-08-21T08:02:24;1999.90;;;999.90;;
52888;SDS011;41413;52.770;6.892;2023-08-21T08:04:51;1999.90;;;999.90;;
52888;SDS011;41413;52.770;6.892;2023-08-21T08:07:18;1999.90;;;999.90;;
52888;SDS011;41413;52.770;6.892;2023-08-21T08:09:45;1999.90;;;999.90;;
52888;SDS011;41413;52.770;6.892;2023-08-21T08:12:13;1999.90;;;999.90;;
52888;SDS011;41413;52.770;6.892;2023-08-21T08:14:40;1999.90;;;999.90;;
52888;SDS011;41413;52.770;6.892;2023-08-21T08:17:07;1999.90;;;999.90;;
52888;SDS011;41413;52.770;6.892;2023-08-21T08:19:33;1999.90;;;999.90;;
52888;SDS011;41413;52.770;6.892;2023-08-21T08:22:00;1999.90;;;999.90;;
52888;SDS011;41413;52.770;6.892;2023-08-21T08:24:27;1999.90;;;999.90;;
52888;SDS011;41413;52.770;6.892;2023-08-21T08:26:56;1999.90;;;999.90;;
52888;SDS011;41413;52.770;6.892;2023-08-21T08:29:23;1999.90;;;999.90;;
52888;SDS011;41413;52.770;6.892;2023-08-21T08:31:50;1999.90;;;999.90;;
52888;SDS011;41413;52.770;6.892;2023-08-21T08:34:16;1999.90;;;999.90;;
52888;SDS011;41413;52.770;6.892;2023-08-21T08:36:46;1999.90;;;999.90;;
52888;SDS011;41413;52.770;6.892;2023-08-21T08:39:13;1999.90;;;999.90;;
52888;SDS011;41413;52.770;6.892;2023-08-21T08:44:29;1999.90;;;999.90;;
52888;SDS011;41413;52.770;6.892;2023-08-21T08:46:56;1999.90;;;999.90;;
52888;SDS011;41413;52.770;6.892;2023-08-21T08:49:23;1999.90;;;999.90;;
52888;SDS011;41413;52.770;6.892;2023-08-21T08:53:50;1999.90;;;999.90;;
52888;SDS011;41413;52.770;6.892;2023-08-21T08:56:17;1999.90;;;999.90;;
52888;SDS011;41413;52.770;6.892;2023-08-21T08:58:44;1999.90;;;999.90;;
52888;SDS011;41413;52.770;6.892;2023-08-21T09:01:11;1696.72;;;999.90;;
52888;SDS011;41413;52.770;6.892;2023-08-21T09:03:38;1529.38;;;999.90;;
52888;SDS011;41413;52.770;6.892;2023-08-21T09:06:05;1628.03;;;999.90;;
52888;SDS011;41413;52.770;6.892;2023-08-21T09:08:32;1581.93;;;999.90;;
52888;SDS011;41413;52.770;6.892;2023-08-21T09:11:02;1144.85;;;795.20;;
52888;SDS011;41413;52.770;6.892;2023-08-21T09:13:30;520.70;;;393.83;;
52888;SDS011;41413;52.770;6.892;2023-08-21T09:15:57;434.02;;;361.98;;
52888;SDS011;41413;52.770;6.892;2023-08-21T09:18:25;1.55;;;1.55;;
52888;SDS011;41413;52.770;6.892;2023-08-21T09:20:52;1.30;;;1.30;;
52888;SDS011;41413;52.770;6.892;2023-08-21T09:23:19;1.38;;;1.38;;
52888;SDS011;41413;52.770;6.892;2023-08-21T09:25:46;1.38;;;1.38;;
52888;SDS011;41413;52.770;6.892;2023-08-21T09:28:18;0.90;;;0.90;;
52888;SDS011;41413;52.770;6.892;2023-08-21T09:30:53;1.50;;;1.50;;
52888;SDS011;41413;52.770;6.892;2023-08-21T09:33:21;1.55;;;1.55;;
52888;SDS011;41413;52.770;6.892;2023-08-21T09:35:52;1.10;;;1.10;;
52888;SDS011;41413;52.770;6.892;2023-08-21T09:38:21;1.23;;;1.23;;
52888;SDS011;41413;52.770;6.892;2023-08-21T09:40:54;1.42;;;1.42;;
52888;SDS011;41413;52.770;6.892;2023-08-21T09:43:22;0.98;;;0.98;;
52888;SDS011;41413;52.770;6.892;2023-08-21T09:45:50;1.17;;;1.17;;
52888;SDS011;41413;52.770;6.892;2023-08-21T09:48:20;1.30;;;1.30;;
52888;SDS011;41413;52.770;6.892;2023-08-21T09:50:49;1.40;;;1.40;;
52888;SDS011;41413;52.770;6.892;2023-08-21T09:53:17;1.20;;;1.20;;
52888;SDS011;41413;52.770;6.892;2023-08-21T09:55:46;1.50;;;1.50;;
52888;SDS011;41413;52.770;6.892;2023-08-21T09:58:13;1.70;;;1.70;;
52888;SDS011;41413;52.770;6.892;2023-08-21T10:00:41;1.27;;;1.27;;
52888;SDS011;41413;52.770;6.892;2023-08-21T10:03:09;1.60;;;1.60;;
52888;SDS011;41413;52.770;6.892;2023-08-21T10:05:38;1.00;;;1.00;;
52888;SDS011;41413;52.770;6.892;2023-08-21T10:08:08;1.00;;;1.00;;
52888;SDS011;41413;52.770;6.892;2023-08-21T10:10:36;1.30;;;1.30;;
52888;SDS011;41413;52.770;6.892;2023-08-21T10:13:05;1.27;;;1.27;;
52888;SDS011;41413;52.770;6.892;2023-08-21T10:15:33;1.60;;;1.60;;
52888;SDS011;41413;52.770;6.892;2023-08-21T10:18:18;1.00;;;1.00;;
52888;SDS011;41413;52.770;6.892;2023-08-21T10:20:48;1.33;;;1.33;;
52888;SDS011;41413;52.770;6.892;2023-08-21T10:23:24;1.17;;;1.17;;
52888;SDS011;41413;52.770;6.892;2023-08-21T10:25:58;1.42;;;1.42;;
52888;SDS011;41413;52.770;6.892;2023-08-21T10:34:11;1.38;;;1.38;;
52888;SDS011;41413;52.770;6.892;2023-08-21T10:39:16;1.23;;;1.23;;
52888;SDS011;41413;52.770;6.892;2023-08-21T10:42:05;1.33;;;1.33;;
52888;SDS011;41413;52.770;6.892;2023-08-21T10:49:55;1.05;;;1.05;;
52888;SDS011;41413;52.770;6.892;2023-08-21T10:52:44;1.15;;;1.15;;
52888;SDS011;41413;52.770;6.892;2023-08-21T10:55:14;1.10;;;1.10;;
52888;SDS011;41413;52.770;6.892;2023-08-21T10:57:41;1.27;;;1.27;;
52888;SDS011;41413;52.770;6.892;2023-08-21T11:00:09;1.20;;;1.20;;
52888;SDS011;41413;52.770;6.892;2023-08-21T11:02:38;1.15;;;1.15;;
52888;SDS011;41413;52.770;6.892;2023-08-21T11:05:07;1.40;;;1.40;;
52888;SDS011;41413;52.770;6.892;2023-08-21T11:10:15;1.33;;;1.33;;
52888;SDS011;41413;52.770;6.892;2023-08-21T11:12:51;1.10;;;1.10;;
52888;SDS011;41413;52.770;6.892;2023-08-21T11:15:19;1.40;;;1.40;;
52888;SDS011;41413;52.770;6.892;2023-08-21T11:18:01;1.20;;;1.20;;
52888;SDS011;41413;52.770;6.892;2023-08-21T11:20:29;1.42;;;1.42;;
52888;SDS011;41413;52.770;6.892;2023-08-21T11:23:06;1.25;;;1.25;;
52888;SDS011;41413;52.770;6.892;2023-08-21T11:25:34;1.20;;;1.20;;
52888;SDS011;41413;52.770;6.892;2023-08-21T11:28:05;0.93;;;0.93;;
52888;SDS011;41413;52.770;6.892;2023-08-21T11:30:33;0.95;;;0.95;;
52888;SDS011;41413;52.770;6.892;2023-08-21T11:33:10;1.42;;;1.42;;
52888;SDS011;41413;52.770;6.892;2023-08-21T11:35:38;1.23;;;1.23;;
52888;SDS011;41413;52.770;6.892;2023-08-21T11:38:06;1.38;;;1.38;;
52888;SDS011;41413;52.770;6.892;2023-08-21T11:40:39;1.10;;;1.10;;
52888;SDS011;41413;52.770;6.892;2023-08-21T11:43:06;1.38;;;1.38;;
52888;SDS011;41413;52.770;6.892;2023-08-21T11:45:35;1.38;;;1.38;;
52888;SDS011;41413;52.770;6.892;2023-08-21T11:48:22;1.20;;;1.20;;
52888;SDS011;41413;52.770;6.892;2023-08-21T11:50:49;1.27;;;1.27;;
52888;SDS011;41413;52.770;6.892;2023-08-21T11:53:28;1.27;;;1.27;;
52888;SDS011;41413;52.770;6.892;2023-08-21T11:56:00;1.17;;;1.17;;
52888;SDS011;41413;52.770;6.892;2023-08-21T11:58:27;1.38;;;1.38;;
52888;SDS011;41413;52.770;6.892;2023-08-21T12:01:03;1.33;;;1.33;;
52888;SDS011;41413;52.770;6.892;2023-08-21T12:03:35;1.60;;;1.60;;
52888;SDS011;41413;52.770;6.892;2023-08-21T12:08:37;1.38;;;1.38;;
52888;SDS011;41413;52.770;6.892;2023-08-21T12:11:06;1.65;;;1.65;;
52888;SDS011;41413;52.770;6.892;2023-08-21T12:13:34;1.23;;;1.23;;
52888;SDS011;41413;52.770;6.892;2023-08-21T12:16:01;1.40;;;1.40;;
52888;SDS011;41413;52.770;6.892;2023-08-21T12:18:29;1.42;;;1.42;;
52888;SDS011;41413;52.770;6.892;2023-08-21T12:20:55;1.48;;;1.48;;
52888;SDS011;41413;52.770;6.892;2023-08-21T12:23:22;1.38;;;1.38;;
52888;SDS011;41413;52.770;6.892;2023-08-21T12:25:49;1.23;;;1.23;;
52888;SDS011;41413;52.770;6.892;2023-08-21T12:28:16;1.42;;;1.42;;
52888;SDS011;41413;52.770;6.892;2023-08-21T12:30:43;1.30;;;1.30;;
52888;SDS011;41413;52.770;6.892;2023-08-21T12:33:09;1.08;;;1.08;;
52888;SDS011;41413;52.770;6.892;2023-08-21T12:35:48;1.20;;;1.20;;
52888;SDS011;41413;52.770;6.892;2023-08-21T12:38:15;0.93;;;0.93;;
52888;SDS011;41413;52.770;6.892;2023-08-21T12:40:42;1.38;;;1.38;;
52888;SDS011;41413;52.770;6.892;2023-08-21T12:43:09;1.23;;;1.23;;
52888;SDS011;41413;52.770;6.892;2023-08-21T12:45:36;1.25;;;1.25;;
52888;SDS011;41413;52.770;6.892;2023-08-21T12:48:03;1.08;;;1.08;;
52888;SDS011;41413;52.770;6.892;2023-08-21T12:50:31;1.15;;;1.15;;
52888;SDS011;41413;52.770;6.892;2023-08-21T12:52:58;1.10;;;1.10;;
52888;SDS011;41413;52.770;6.892;2023-08-21T12:55:25;1.00;;;1.00;;
52888;SDS011;41413;52.770;6.892;2023-08-21T12:57:52;1.08;;;1.08;;
52888;SDS011;41413;52.770;6.892;2023-08-21T13:00:18;1.30;;;1.30;;
52888;SDS011;41413;52.770;6.892;2023-08-21T13:02:45;1.23;;;1.23;;
52888;SDS011;41413;52.770;6.892;2023-08-21T13:05:12;1.02;;;1.02;;
52888;SDS011;41413;52.770;6.892;2023-08-21T13:07:39;1.48;;;1.48;;
52888;SDS011;41413;52.770;6.892;2023-08-21T13:10:07;1.60;;;1.60;;
52888;SDS011;41413;52.770;6.892;2023-08-21T13:12:34;1.00;;;1.00;;
52888;SDS011;41413;52.770;6.892;2023-08-21T13:15:01;1.67;;;1.67;;
52888;SDS011;41413;52.770;6.892;2023-08-21T13:17:34;0.95;;;0.95;;
52888;SDS011;41413;52.770;6.892;2023-08-21T13:20:01;1.05;;;1.05;;
52888;SDS011;41413;52.770;6.892;2023-08-21T13:22:28;1.27;;;1.27;;
52888;SDS011;41413;52.770;6.892;2023-08-21T13:25:09;1.10;;;1.10;;
52888;SDS011;41413;52.770;6.892;2023-08-21T13:27:36;1.17;;;1.17;;
52888;SDS011;41413;52.770;6.892;2023-08-21T13:30:03;1.13;;;1.13;;
52888;SDS011;41413;52.770;6.892;2023-08-21T13:32:31;1.40;;;1.40;;
52888;SDS011;41413;52.770;6.892;2023-08-21T13:34:58;1.20;;;1.20;;
52888;SDS011;41413;52.770;6.892;2023-08-21T13:37:25;1.20;;;1.20;;
52888;SDS011;41413;52.770;6.892;2023-08-21T13:39:53;0.93;;;0.93;;
52888;SDS011;41413;52.770;6.892;2023-08-21T13:42:21;1.33;;;1.33;;
52888;SDS011;41413;52.770;6.892;2023-08-21T13:44:48;1.13;;;1.13;;
52888;SDS011;41413;52.770;6.892;2023-08-21T13:47:15;1.00;;;1.00;;
52888;SDS011;41413;52.770;6.892;2023-08-21T13:49:42;1.40;;;1.40;;
52888;SDS011;41413;52.770;6.892;2023-08-21T13:52:08;1.08;;;1.08;;
52888;SDS011;41413;52.770;6.892;2023-08-21T13:54:35;1.30;;;1.30;;
52888;SDS011;41413;52.770;6.892;2023-08-21T13:57:02;1.23;;;1.23;;
52888;SDS011;41413;52.770;6.892;2023-08-21T13:59:30;1.17;;;1.17;;
52888;SDS011;41413;52.770;6.892;2023-08-21T14:01:56;1.42;;;1.42;;
52888;SDS011;41413;52.770;6.892;2023-08-21T14:04:23;1.58;;;1.58;;
52888;SDS011;41413;52.770;6.892;2023-08-21T14:06:50;1.20;;;1.20;;
52888;SDS011;41413;52.770;6.892;2023-08-21T14:09:17;1.15;;;1.15;;
52888;SDS011;41413;52.770;6.892;2023-08-21T14:11:45;1.33;;;1.33;;
52888;SDS011;41413;52.770;6.892;2023-08-21T14:14:11;1.02;;;1.02;;
52888;SDS011;41413;52.770;6.892;2023-08-21T14:16:38;1.13;;;1.13;;
52888;SDS011;41413;52.770;6.892;2023-08-21T14:19:05;1.13;;;1.13;;
52888;SDS011;41413;52.770;6.892;2023-08-21T14:21:32;1.38;;;1.38;;
52888;SDS011;41413;52.770;6.892;2023-08-21T14:23:59;1.13;;;1.13;;
52888;SDS011;41413;52.770;6.892;2023-08-21T14:26:25;1.27;;;1.27;;
52888;SDS011;41413;52.770;6.892;2023-08-21T14:28:53;1.27;;;1.27;;
52888;SDS011;41413;52.770;6.892;2023-08-21T14:31:20;1.27;;;1.27;;
52888;SDS011;41413;52.770;6.892;2023-08-21T14:33:47;1.30;;;1.30;;
52888;SDS011;41413;52.770;6.892;2023-08-21T14:36:14;1.52;;;1.52;;
52888;SDS011;41413;52.770;6.892;2023-08-21T14:38:42;1.35;;;1.35;;
52888;SDS011;41413;52.770;6.892;2023-08-21T14:41:10;0.95;;;0.95;;
52888;SDS011;41413;52.770;6.892;2023-08-21T14:43:36;1.50;;;1.50;;